Flight Track Log - Related Links

Times and Time Zones

All times are in EDT time to prevent confusion due to time zone crossing. See the KAP927 flight status page for this flight to view local times or setup timezone preferences in your user account.

Time Position Orientation Groundspeed Altitude Reporting Facility
EDT Latitude Longitude Course Direction KTS MPH feet Rate Location/Type
Wed 05:05:31 PM 44.5650 -75.3161 149° Southeast 162 186 3,100  Level Boston Center
Wed 05:06:31 PM 44.5322 -75.2911 151° Southeast 157 181 3,600 500 Climbing Boston Center
Wed 05:07:31 PM 44.5019 -75.2606 144° Southeast 146 168 4,100 500 Climbing Boston Center
Wed 05:08:31 PM 44.4692 -75.2358 152° Southeast 138 159 4,600 500 Climbing Boston Center
Wed 05:09:31 PM 44.4364 -75.2111 152° Southeast 138 159 5,100 550 Climbing Boston Center
Wed 05:10:00 PM 44.4902 -75.2947 149° Southeast  Level Estimated
Wed 05:10:31 PM 44.4058 -75.1806 144° Southeast 138 159 5,700  Level Boston Center
Wed 05:11:31 PM 44.3711 -75.1556 153° Southeast 138 159 6,200 500 Climbing Boston Center
Wed 05:12:31 PM 44.3386 -75.1192 141° Southeast 143 165 6,700 450 Climbing Boston Center
Wed 05:13:31 PM 44.3017 -75.0944 154° Southeast 143 165 7,100 200 Climbing Boston Center
Wed 05:14:31 PM 44.2608 -75.0578 147° Southeast 154 177 7,100  Level Boston Center
Wed 05:15:31 PM 44.2178 -75.0183 147° Southeast 168 193 7,100  Level Boston Center
Wed 05:16:31 PM 44.1769 -74.9847 149° Southeast 174 200 7,100  Level Boston Center
Wed 05:17:31 PM 44.1381 -74.9511 148° Southeast 174 200 7,100  Level Boston Center
Wed 05:18:31 PM 44.0972 -74.9147 147° Southeast 174 200 7,100  Level Boston Center
Wed 05:19:31 PM 44.0583 -74.8842 151° Southeast 174 200 7,100  Level Boston Center
Wed 05:20:31 PM 44.0194 -74.8481 146° Southeast 174 200 7,100  Level Boston Center
Wed 05:21:31 PM 43.9783 -74.8147 150° Southeast 174 200 7,100  Level Boston Center
Wed 05:22:31 PM 43.9394 -74.7814 148° Southeast 174 200 7,100  Level Boston Center
Wed 05:23:31 PM 43.9006 -74.7481 148° Southeast 168 193 7,100  Level Boston Center
Wed 05:24:31 PM 43.8617 -74.7178 151° Southeast 168 193 7,100  Level Boston Center
Wed 05:25:31 PM 43.8206 -74.6817 148° Southeast 168 193 7,100  Level Boston Center
Wed 05:26:31 PM 43.7794 -74.6486 150° Southeast 168 193 7,100  Level Boston Center
Wed 05:27:31 PM 43.7406 -74.6156 148° Southeast 168 193 7,100  Level Boston Center
Wed 05:28:31 PM 43.6994 -74.5825 150° Southeast 168 193 7,100  Level Boston Center
Wed 05:29:31 PM 43.6606 -74.5494 148° Southeast 168 193 7,100  Level Boston Center
Wed 05:30:31 PM 43.6194 -74.5164 150° Southeast 168 193 7,100  Level Boston Center
Wed 05:31:31 PM 43.5783 -74.4836 150° Southeast 168 193 7,100  Level Boston Center
Wed 05:32:31 PM 43.5372 -74.4478 148° Southeast 168 193 7,100  Level Boston Center
Wed 05:33:43 PM 43.4964 -74.4122 148° Southeast 168 193 7,100  Level Boston Center
Wed 05:34:43 PM 43.4469 -74.3733 150° Southeast 168 193 7,100  Level Boston Center
Wed 05:35:30 PM 43.4139 -74.3467 150° Southeast 170 196 7,100  Level Boston Center
Wed 05:36:25 PM 43.3750 -74.3111 146° Southeast 172 198 7,100  Level Boston Center
Wed 05:37:26 PM 43.3339 -74.2811 152° Southeast 170 196 7,100  Level Boston Center
Wed 05:38:20 PM 43.2969 -74.2486 147° Southeast 171 197 7,100  Level Boston Center
Wed 05:39:21 PM 43.2556 -74.2161 150° Southeast 168 193 7,100 -298 Level Boston Center
Wed 05:40:21 PM 43.2125 -74.1836 151° Southeast 188 216 6,500 -567 Descending Boston Center
Wed 05:41:28 PM 43.1589 -74.1392 149° Southeast 189 217 5,900 -422 Descending Boston Center
Wed 05:42:29 PM 43.1136 -74.1067 152° Southeast 189 217 5,600 -393 Descending Boston Center
Wed 05:43:30 PM 43.0703 -74.0686 147° Southeast 186 214 5,100 -248 Descending Boston Center
Wed 05:44:30 PM 43.0292 -74.0306 146° Southeast 176 203 5,100  Level Boston Center
Wed 05:45:37 PM 42.9814 -74.0125 165° South 163 188 5,100 -90 Level Boston Center
Wed 05:46:43 PM 42.9378 -74.0000 168° South 165 190 4,900 -397 Descending Boston Center
Wed 05:47:38 PM 42.8817 -73.9872 171° South 187 215 4,300 -569 Descending Boston Center
Wed 05:48:39 PM 42.8319 -73.9803 174° South 184 212 3,800 -541 Descending Boston Center
Wed 05:49:40 PM 42.7819 -73.9592 163° South 184 212 3,200 -793 Descending Boston Center
Wed 05:50:40 PM 42.7431 -73.9131 139° Southeast 179 206 2,200 -945 Descending Boston Center
Wed 05:51:47 PM 42.7250 -73.8617 116° Southeast 138 159 1,200 -645 Descending Boston Center
Wed 05:52:41 PM 42.7214 -73.8164 96° East 120 138 900 -333 Descending Boston Center
Wed 05:54:00 PM 42.7491 -73.8020 45° Northeast  Level Estimated
Wed 06:01:00 PM 42.7491 -73.8020 160° South  Level Estimated
Wed 06:02:00 PM 42.7491 -73.8020 160° South  Level Estimated
Wed 06:03:00 PM 42.7491 -73.8020 160° South  Level Estimated

Login

Don't have an account? Register now (free) for customized features, flight alerts, and more!